createdAt,value
2019-03-18T00:02:33.310Z,5.77
2019-03-18T00:06:38.997Z,5.74
2019-03-18T00:10:44.921Z,5.73
2019-03-18T00:15:00.674Z,5.68
2019-03-18T00:18:57.981Z,5.50
2019-03-18T00:23:03.665Z,5.40
2019-03-18T00:27:09.420Z,5.49
2019-03-18T00:31:15.142Z,5.09
2019-03-18T00:35:20.858Z,5.02
2019-03-18T00:39:26.503Z,4.95
2019-03-18T00:43:32.198Z,4.91
2019-03-18T00:47:37.895Z,4.68
2019-03-18T00:51:43.582Z,4.51
2019-03-18T00:55:51.623Z,4.46
2019-03-18T00:59:56.636Z,4.51
2019-03-18T01:04:02.321Z,4.50
2019-03-18T01:08:08.055Z,4.51
2019-03-18T01:12:13.786Z,4.42
2019-03-18T01:16:19.455Z,4.36
2019-03-18T01:20:25.165Z,4.33
2019-03-18T01:24:31.019Z,4.37
2019-03-18T01:28:36.693Z,4.38
2019-03-18T01:32:42.537Z,4.25
2019-03-18T01:36:48.265Z,4.30
2019-03-18T01:40:55.288Z,4.29
2019-03-18T01:45:00.964Z,4.18
2019-03-18T01:49:06.789Z,4.05
2019-03-18T01:53:12.480Z,4.07
2019-03-18T01:57:18.152Z,4.08
2019-03-18T02:01:23.838Z,4.07
2019-03-18T02:05:29.521Z,4.09
2019-03-18T02:09:35.199Z,4.03
2019-03-18T02:13:40.858Z,4.05
2019-03-18T02:17:46.583Z,4.10
2019-03-18T02:21:52.257Z,4.15
2019-03-18T02:25:57.935Z,4.14
2019-03-18T02:30:05.645Z,4.18
2019-03-18T02:34:11.316Z,4.22
2019-03-18T02:38:17.003Z,4.25
2019-03-18T02:42:22.716Z,4.13
2019-03-18T02:46:28.524Z,4.08
2019-03-18T02:50:35.347Z,3.92
2019-03-18T02:54:41.009Z,3.98
2019-03-18T02:58:46.686Z,4.05
2019-03-18T03:02:52.412Z,4.03
2019-03-18T03:06:58.075Z,3.90
2019-03-18T03:11:03.755Z,3.96
2019-03-18T03:15:12.434Z,3.94
2019-03-18T03:19:18.122Z,3.98
2019-03-18T03:23:23.799Z,3.96
2019-03-18T03:27:29.537Z,4.03
2019-03-18T03:31:35.252Z,4.11
2019-03-18T03:35:40.914Z,4.01
2019-03-18T03:39:46.594Z,4.12
2019-03-18T03:43:53.261Z,4.36
2019-03-18T03:47:58.939Z,4.46
2019-03-18T03:52:04.608Z,4.53
2019-03-18T03:56:10.483Z,4.85
2019-03-18T04:00:16.742Z,4.94
2019-03-18T04:04:22.496Z,4.88
2019-03-18T04:08:28.252Z,4.70
2019-03-18T04:12:33.916Z,4.68
2019-03-18T04:16:39.618Z,4.70
2019-03-18T04:20:45.506Z,4.98
2019-03-18T04:24:51.203Z,5.28
2019-03-18T04:28:56.861Z,5.53
2019-03-18T04:33:02.522Z,5.64
2019-03-18T04:37:08.212Z,5.64
2019-03-18T04:41:13.921Z,5.61
2019-03-18T04:45:19.599Z,5.77
2019-03-18T04:49:25.283Z,5.78
2019-03-18T04:53:30.962Z,5.64
2019-03-18T04:57:36.770Z,5.84
2019-03-18T05:01:42.561Z,5.54
2019-03-18T05:05:48.298Z,5.90
2019-03-18T05:09:53.975Z,5.61
2019-03-18T05:13:59.652Z,5.47
2019-03-18T05:18:05.330Z,5.37
2019-03-18T05:22:14.181Z,5.53
2019-03-18T05:26:22.247Z,5.63
2019-03-18T05:30:32.181Z,6.01
2019-03-18T05:34:37.862Z,6.11
2019-03-18T05:38:43.544Z,6.22
2019-03-18T05:42:49.250Z,6.15
2019-03-18T05:46:54.925Z,5.99
2019-03-18T05:51:00.595Z,5.86
2019-03-18T05:55:09.239Z,6.06
2019-03-18T05:59:14.915Z,5.91
2019-03-18T06:03:20.636Z,6.09
2019-03-18T06:07:26.318Z,6.37
2019-03-18T06:11:32.012Z,6.67
2019-03-18T06:15:37.694Z,6.86
2019-03-18T06:19:43.450Z,7.08
2019-03-18T06:23:49.134Z,7.14
2019-03-18T06:27:54.828Z,7.10
2019-03-18T06:32:00.506Z,7.20
2019-03-18T06:36:06.195Z,7.15
2019-03-18T06:40:13.896Z,7.16
2019-03-18T06:44:19.564Z,7.30
2019-03-18T06:48:25.247Z,7.12
2019-03-18T06:52:30.914Z,7.08
2019-03-18T06:56:36.600Z,7.06
2019-03-18T07:00:42.277Z,7.39
2019-03-18T07:04:47.961Z,7.39
2019-03-18T07:08:53.631Z,7.54
2019-03-18T07:12:59.307Z,7.74
2019-03-18T07:17:05.057Z,7.61
2019-03-18T07:21:10.824Z,7.69
2019-03-18T07:25:16.515Z,7.74
2019-03-18T07:29:22.170Z,7.65
2019-03-18T07:33:27.883Z,7.95
2019-03-18T07:37:33.837Z,8.09
2019-03-18T07:41:39.518Z,8.23
2019-03-18T07:45:45.180Z,8.21
2019-03-18T07:49:50.871Z,8.47
2019-03-18T07:53:56.540Z,8.55
2019-03-18T07:58:02.241Z,8.40
2019-03-18T08:02:07.919Z,8.30
2019-03-18T08:06:13.598Z,8.23
2019-03-18T08:10:19.335Z,8.37
2019-03-18T08:14:25.009Z,8.17
2019-03-18T08:18:42.442Z,8.44
2019-03-18T08:22:39.769Z,8.54
2019-03-18T08:26:45.450Z,8.61
2019-03-18T08:30:51.148Z,8.41
2019-03-18T08:34:56.910Z,8.16
2019-03-18T08:39:03.165Z,7.96
2019-03-18T08:43:08.863Z,8.14
2019-03-18T08:47:16.164Z,7.84
2019-03-18T08:51:21.851Z,7.91
2019-03-18T08:55:28.083Z,8.21
2019-03-18T08:59:33.999Z,9.40
2019-03-18T09:03:39.667Z,11.76
2019-03-18T09:07:45.419Z,14.21
2019-03-18T09:11:51.122Z,15.91
2019-03-18T09:15:56.812Z,16.53
2019-03-18T09:20:02.510Z,17.22
2019-03-18T09:24:08.175Z,16.25
2019-03-18T09:28:13.963Z,16.45
2019-03-18T09:32:21.680Z,16.07
2019-03-18T09:36:27.400Z,16.53
2019-03-18T09:40:33.098Z,15.97
2019-03-18T09:44:38.772Z,15.45
2019-03-18T09:48:44.497Z,15.05
2019-03-18T09:52:50.178Z,15.50
2019-03-18T09:56:55.945Z,15.09
2019-03-18T10:01:01.652Z,14.56
2019-03-18T10:05:08.171Z,14.93
2019-03-18T10:09:13.871Z,15.20
2019-03-18T10:13:19.564Z,15.28
2019-03-18T10:17:25.275Z,15.47
2019-03-18T10:21:30.957Z,15.94
2019-03-18T10:25:36.656Z,16.15
2019-03-18T10:29:42.349Z,15.89
2019-03-18T10:33:48.047Z,15.33
2019-03-18T10:37:53.741Z,17.45
2019-03-18T10:41:59.474Z,16.55
2019-03-18T10:46:05.177Z,14.46
2019-03-18T10:50:15.929Z,13.39
2019-03-18T10:54:30.359Z,17.67
2019-03-18T10:58:29.006Z,17.63
2019-03-18T11:07:16.762Z,14.97
2019-03-18T11:11:22.538Z,16.02
2019-03-18T11:15:28.230Z,17.50
2019-03-18T11:19:33.923Z,21.36
2019-03-18T11:23:39.710Z,22.06
2019-03-18T11:27:45.393Z,22.81
2019-03-18T11:31:54.151Z,24.50
2019-03-18T11:35:58.509Z,25.01
2019-03-18T11:40:12.844Z,23.91
2019-03-18T11:44:18.503Z,22.95
2019-03-18T11:48:24.198Z,22.62
2019-03-18T11:52:32.621Z,24.21
2019-03-18T11:56:37.321Z,25.33
2019-03-18T12:00:44.304Z,23.01
2019-03-18T12:04:49.961Z,21.98
2019-03-18T12:08:55.650Z,19.26
2019-03-18T12:13:01.424Z,19.98
2019-03-18T12:17:07.114Z,20.26
2019-03-18T12:21:15.877Z,18.58
2019-03-18T12:25:20.372Z,20.20
2019-03-18T12:29:26.056Z,19.88
2019-03-18T12:33:31.756Z,20.48
2019-03-18T12:37:37.480Z,19.27
2019-03-18T12:41:43.198Z,17.46
2019-03-18T12:45:48.881Z,18.81
2019-03-18T12:49:54.568Z,20.55
2019-03-18T12:54:00.352Z,20.34
2019-03-18T12:58:06.213Z,18.20
2019-03-18T13:02:12.098Z,16.82
2019-03-18T13:06:18.861Z,16.24
2019-03-18T13:10:24.546Z,15.66
2019-03-18T13:14:30.245Z,15.01
2019-03-18T13:18:35.941Z,14.72
2019-03-18T13:22:41.631Z,14.78
2019-03-18T13:26:48.389Z,14.80
2019-03-18T13:30:54.079Z,14.58
2019-03-18T13:34:59.765Z,14.24
2019-03-18T13:39:08.408Z,13.95
2019-03-18T13:43:14.183Z,14.01
2019-03-18T13:47:19.855Z,14.01
2019-03-18T13:51:25.566Z,13.57
2019-03-18T13:55:31.328Z,13.18
2019-03-18T13:59:37.009Z,13.09
2019-03-18T14:03:43.646Z,13.39
2019-03-18T14:07:59.621Z,13.47
2019-03-18T14:11:56.739Z,13.56
2019-03-18T14:16:02.450Z,13.60
2019-03-18T14:20:12.209Z,13.38
2019-03-18T14:24:17.935Z,13.22
2019-03-18T14:28:23.618Z,12.59
2019-03-18T14:32:29.308Z,11.79
2019-03-18T14:36:35.008Z,11.55
2019-03-18T14:40:40.787Z,11.95
2019-03-18T14:44:46.457Z,12.29
2019-03-18T14:48:52.145Z,12.27
2019-03-18T14:52:57.870Z,11.87
2019-03-18T14:57:03.563Z,11.46
2019-03-18T15:01:09.330Z,11.02
2019-03-18T15:05:16.189Z,10.72
2019-03-18T15:09:21.864Z,11.28
2019-03-18T15:13:31.138Z,11.56
2019-03-18T15:17:38.243Z,11.20
2019-03-18T15:21:44.021Z,10.96
2019-03-18T15:25:49.687Z,10.97
2019-03-18T15:29:55.377Z,10.90
2019-03-18T15:34:01.180Z,10.65
2019-03-18T15:38:06.906Z,12.10
2019-03-18T15:42:12.636Z,12.68
2019-03-18T15:46:18.299Z,12.35
2019-03-18T15:50:26.580Z,12.25
2019-03-18T15:54:32.265Z,12.11
2019-03-18T15:58:37.998Z,11.68
2019-03-18T16:02:43.695Z,11.29
2019-03-18T16:06:49.402Z,10.90
2019-03-18T16:10:55.116Z,10.71
2019-03-18T16:15:00.884Z,10.71
2019-03-18T16:19:06.644Z,10.89
2019-03-18T16:23:12.351Z,10.92
2019-03-18T16:27:18.032Z,10.78
2019-03-18T16:31:23.726Z,10.78
2019-03-18T16:35:29.494Z,10.76
2019-03-18T16:39:35.179Z,10.60
2019-03-18T16:43:40.877Z,10.65
2019-03-18T16:47:46.565Z,10.83
2019-03-18T16:51:53.316Z,10.94
2019-03-18T16:55:59.017Z,11.00
2019-03-18T17:00:07.099Z,10.93
2019-03-18T17:04:12.870Z,10.92
2019-03-18T17:08:18.557Z,10.95
2019-03-18T17:12:24.328Z,10.91
2019-03-18T17:16:30.039Z,10.94
2019-03-18T17:20:35.778Z,10.98
2019-03-18T17:24:41.496Z,11.06
2019-03-18T17:28:47.193Z,11.08
2019-03-18T17:32:52.879Z,11.08
2019-03-18T17:36:58.577Z,10.99
2019-03-18T17:41:04.257Z,10.96
2019-03-18T17:45:14.595Z,10.83
2019-03-18T17:49:20.297Z,10.91
2019-03-18T17:53:25.989Z,10.74
2019-03-18T17:57:31.682Z,10.53
2019-03-18T18:01:37.401Z,10.45
2019-03-18T18:05:43.209Z,10.37
2019-03-18T18:09:48.965Z,10.30
2019-03-18T18:13:54.687Z,10.31
2019-03-18T18:18:00.387Z,10.33
2019-03-18T18:22:06.240Z,10.31
2019-03-18T18:26:12.019Z,10.24
2019-03-18T18:39:44.559Z,10.11
2019-03-18T18:44:17.203Z,9.96
2019-03-18T18:53:57.776Z,9.66
2019-03-18T18:59:15.124Z,9.60
2019-03-18T19:08:19.456Z,9.52
2019-03-18T19:12:25.147Z,9.49
2019-03-18T19:17:18.463Z,9.57
2019-03-18T19:21:24.176Z,9.73
2019-03-18T19:26:17.765Z,9.76
2019-03-18T19:30:24.488Z,9.84
2019-03-18T19:35:18.389Z,10.02
2019-03-18T19:39:25.774Z,10.12
2019-03-18T19:44:16.746Z,10.05
2019-03-18T19:48:22.485Z,10.11
2019-03-18T19:53:18.002Z,10.14
2019-03-18T19:57:23.770Z,10.17
2019-03-18T20:06:19.585Z,9.91
2019-03-18T20:10:26.899Z,9.71
2019-03-18T20:14:32.895Z,9.52
2019-03-18T20:23:19.801Z,9.09
2019-03-18T20:27:25.479Z,8.92
2019-03-18T20:31:31.177Z,8.92
2019-03-18T20:40:19.294Z,8.89
2019-03-18T20:44:24.992Z,8.68
2019-03-18T20:48:30.657Z,8.64
2019-03-18T20:53:18.421Z,8.54
2019-03-18T20:57:24.092Z,8.53
2019-03-18T21:01:29.784Z,8.29
2019-03-18T21:10:23.019Z,8.37
2019-03-18T21:14:28.785Z,8.45
2019-03-18T21:19:16.243Z,8.49
2019-03-18T21:23:22.013Z,8.55
2019-03-18T21:27:27.689Z,8.63
2019-03-18T21:31:33.469Z,8.59
2019-03-18T21:35:39.255Z,8.53
2019-03-18T21:39:44.932Z,8.48
2019-03-18T21:43:51.684Z,8.47
2019-03-18T21:48:19.661Z,8.63
2019-03-18T21:52:25.347Z,8.78
2019-03-18T21:56:31.054Z,8.76
2019-03-18T22:00:36.834Z,8.87
2019-03-18T22:04:42.494Z,8.88
2019-03-18T22:08:49.225Z,8.79
2019-03-18T22:12:54.927Z,8.85
2019-03-18T22:17:18.730Z,8.73
2019-03-18T22:21:24.385Z,8.70
2019-03-18T22:25:30.175Z,8.87
2019-03-18T22:29:35.873Z,9.09
2019-03-18T22:33:41.569Z,9.06
2019-03-18T22:37:47.417Z,9.13
2019-03-18T22:41:53.092Z,9.16
2019-03-18T22:45:58.771Z,9.07
2019-03-18T22:50:06.764Z,8.94
2019-03-18T22:54:12.523Z,9.02
2019-03-18T23:04:12.869Z,8.87
2019-03-18T23:08:18.630Z,8.53
2019-03-18T23:12:24.487Z,7.92
2019-03-18T23:16:30.173Z,7.62
2019-03-18T23:20:35.863Z,7.63
2019-03-18T23:24:43.445Z,7.47
2019-03-18T23:28:48.893Z,7.53
2019-03-18T23:32:54.584Z,7.71
2019-03-18T23:37:00.262Z,7.77
2019-03-18T23:41:06.018Z,7.71
2019-03-18T23:45:13.126Z,7.64
2019-03-18T23:49:18.809Z,7.56
2019-03-18T23:53:24.491Z,7.53
2019-03-18T23:57:30.350Z,7.57
